Time;durP1;ratioP1;P1;durP2;ratioP2;P2;SDS_P1;SDS_P2;PMS_P1;PMS_P2;Temp;Humidity;BMP_temperature;BMP_pressure;BME280_temperature;BME280_humidity;BME280_pressure;Samples;Min_cycle;Max_cycle;Signal;HPM_P1;HPM_P2
2022/08/26 00:01:11;;;;;;;4.97;3.58;;;;;;;;;;5037678;28;20025;-62
2022/08/26 00:03:38;;;;;;;6.43;3.85;;;;;;;;;;5037300;28;20041;-62
2022/08/26 00:06:04;;;;;;;8.43;3.67;;;;;;;;;;5037193;28;20372;-62
2022/08/26 00:08:29;;;;;;;6.88;4.10;;;;;;;;;;5020004;28;20108;-62
2022/08/26 00:10:55;;;;;;;7.60;3.78;;;;;;;;;;5037193;28;20080;-62
2022/08/26 00:13:21;;;;;;;5.50;3.65;;;;;;;;;;5037199;28;20033;-62
2022/08/26 00:15:50;;;;;;;5.13;3.58;;;;;;;;;;5046183;23;20141;-62
2022/08/26 00:18:17;;;;;;;7.25;3.47;;;;;;;;;;5061983;23;20065;-62
2022/08/26 00:20:49;;;;;;;6.22;4.00;;;;;;;;;;5043284;23;20048;-67
2022/08/26 00:23:15;;;;;;;6.95;3.80;;;;;;;;;;5014543;28;20049;-66
2022/08/26 00:25:40;;;;;;;8.85;3.85;;;;;;;;;;5017113;28;20029;-67
2022/08/26 00:28:06;;;;;;;5.60;3.63;;;;;;;;;;5017057;28;20080;-67
2022/08/26 00:30:33;;;;;;;7.95;3.65;;;;;;;;;;5016752;28;20361;-66
2022/08/26 00:32:58;;;;;;;5.95;4.10;;;;;;;;;;5016954;28;20461;-67
2022/08/26 00:35:25;;;;;;;6.55;3.80;;;;;;;;;;5016614;28;20101;-67
2022/08/26 00:37:51;;;;;;;5.55;3.47;;;;;;;;;;5016898;28;20472;-67
2022/08/26 00:40:18;;;;;;;7.00;4.15;;;;;;;;;;5016519;28;20032;-67
2022/08/26 00:42:43;;;;;;;5.80;3.72;;;;;;;;;;5016522;28;20381;-67
2022/08/26 00:45:09;;;;;;;9.55;3.92;;;;;;;;;;4999313;28;20018;-67
2022/08/26 00:47:42;;;;;;;7.10;4.00;;;;;;;;;;5016685;28;20030;-67
2022/08/26 00:50:12;;;;;;;5.65;3.88;;;;;;;;;;5016645;28;20030;-67
2022/08/26 00:52:38;;;;;;;4.90;3.80;;;;;;;;;;5016646;28;20026;-67
2022/08/26 00:55:10;;;;;;;5.80;3.42;;;;;;;;;;5016590;28;20029;-68
2022/08/26 00:57:36;;;;;;;6.95;3.70;;;;;;;;;;5016573;28;20028;-68
2022/08/26 01:00:06;;;;;;;8.73;3.75;;;;;;;;;;5016148;28;20104;-68
2022/08/26 01:02:31;;;;;;;;;;;;;;;;;;5017129;28;20034;-68
2022/08/26 01:04:59;;;;;;;6.20;3.63;;;;;;;;;;5016397;28;19916;-68
2022/08/26 01:07:25;;;;;;;7.90;3.88;;;;;;;;;;5015166;28;20101;-68
2022/08/26 01:09:51;;;;;;;4.72;3.35;;;;;;;;;;5016272;28;20461;-68
2022/08/26 01:12:16;;;;;;;5.63;3.35;;;;;;;;;;5015980;28;20037;-67
2022/08/26 01:14:42;;;;;;;6.15;3.75;;;;;;;;;;5015966;28;20013;-67
2022/08/26 01:17:07;;;;;;;4.68;3.28;;;;;;;;;;5016138;28;20038;-67
2022/08/26 01:19:47;;;;;;;7.25;3.83;;;;;;;;;;5016053;28;20033;-67
2022/08/26 01:22:16;;;;;;;5.35;3.50;;;;;;;;;;5015639;28;20037;-68
2022/08/26 01:24:41;;;;;;;5.55;3.75;;;;;;;;;;5016050;28;20102;-68
2022/08/26 01:27:08;;;;;;;6.07;3.78;;;;;;;;;;5016290;28;20113;-67
2022/08/26 01:29:34;;;;;;;6.00;3.72;;;;;;;;;;5015987;28;20029;-68
2022/08/26 01:31:59;;;;;;;7.25;4.03;;;;;;;;;;5015582;28;20026;-68
2022/08/26 01:34:26;;;;;;;6.57;4.05;;;;;;;;;;5016172;28;20024;-68
2022/08/26 01:36:55;;;;;;;4.80;3.97;;;;;;;;;;5015535;28;20026;-68
2022/08/26 01:39:21;;;;;;;4.65;3.97;;;;;;;;;;5015429;28;20127;-67
2022/08/26 01:41:47;;;;;;;10.88;4.10;;;;;;;;;;5015750;28;20476;-67
2022/08/26 01:44:14;;;;;;;7.93;4.07;;;;;;;;;;5015712;28;20018;-67
2022/08/26 01:46:40;;;;;;;8.38;4.57;;;;;;;;;;5015383;28;20022;-67
2022/08/26 01:49:06;;;;;;;5.70;4.38;;;;;;;;;;5014106;28;20092;-67
2022/08/26 01:51:35;;;;;;;7.35;4.22;;;;;;;;;;5015540;28;20531;-68
2022/08/26 01:54:01;;;;;;;8.87;4.00;;;;;;;;;;5013959;28;20373;-67
2022/08/26 01:56:27;;;;;;;7.20;3.85;;;;;;;;;;5015452;28;20032;-67
2022/08/26 01:58:54;;;;;;;7.35;4.00;;;;;;;;;;5013860;28;20435;-67
2022/08/26 02:01:21;;;;;;;6.43;3.95;;;;;;;;;;5015104;28;20077;-67
2022/08/26 02:04:11;;;;;;;3.97;3.65;;;;;;;;;;5014184;28;20028;-67
2022/08/26 02:06:37;;;;;;;6.25;3.88;;;;;;;;;;5015316;28;20029;-66
2022/08/26 02:09:03;;;;;;;5.22;3.50;;;;;;;;;;5014956;28;20072;-66
2022/08/26 02:11:29;;;;;;;11.55;4.18;;;;;;;;;;5015178;28;20068;-66
2022/08/26 02:13:58;;;;;;;3.95;3.50;;;;;;;;;;5014895;28;20415;-68
2022/08/26 02:16:25;;;;;;;3.60;3.30;;;;;;;;;;5015083;28;20041;-68
2022/08/26 02:18:51;;;;;;;6.22;3.75;;;;;;;;;;5014892;28;20013;-68
2022/08/26 02:21:17;;;;;;;6.25;3.47;;;;;;;;;;5014792;28;20042;-67
2022/08/26 02:23:42;;;;;;;7.15;3.65;;;;;;;;;;5015002;28;20084;-67
2022/08/26 02:26:09;;;;;;;4.20;3.72;;;;;;;;;;5014889;28;20116;-67
2022/08/26 02:28:37;;;;;;;6.82;3.40;;;;;;;;;;5014911;28;20014;-67
2022/08/26 02:31:03;;;;;;;8.88;3.55;;;;;;;;;;5014504;28;20037;-67
2022/08/26 02:33:29;;;;;;;6.32;3.40;;;;;;;;;;5014825;28;20021;-67
2022/08/26 02:35:54;;;;;;;4.57;3.60;;;;;;;;;;5014499;28;20065;-67
2022/08/26 02:38:20;;;;;;;6.68;3.88;;;;;;;;;;5013224;28;20026;-67
2022/08/26 02:40:45;;;;;;;5.03;3.40;;;;;;;;;;5014615;28;20088;-67
2022/08/26 02:43:11;;;;;;;9.02;3.95;;;;;;;;;;5014361;28;20018;-67
2022/08/26 02:45:38;;;;;;;3.60;3.30;;;;;;;;;;5013107;28;20032;-67
2022/08/26 02:48:09;;;;;;;5.78;3.33;;;;;;;;;;5014573;28;20014;-67
2022/08/26 02:50:34;;;;;;;4.30;3.28;;;;;;;;;;5014501;28;20036;-67
2022/08/26 02:53:00;;;;;;;6.05;3.53;;;;;;;;;;5014259;28;20025;-67
2022/08/26 02:55:25;;;;;;;8.80;3.60;;;;;;;;;;5014524;28;20476;-67
2022/08/26 02:57:51;;;;;;;4.25;3.33;;;;;;;;;;5014435;28;20120;-66
2022/08/26 03:00:16;;;;;;;6.13;3.60;;;;;;;;;;5014053;28;20069;-67
2022/08/26 03:02:42;;;;;;;4.90;3.67;;;;;;;;;;5012815;28;20057;-68
2022/08/26 03:05:08;;;;;;;12.38;3.90;;;;;;;;;;5014062;28;20044;-68
2022/08/26 03:07:33;;;;;;;6.35;3.70;;;;;;;;;;5012876;28;20032;-68
2022/08/26 03:09:59;;;;;;;6.78;3.88;;;;;;;;;;5014254;28;20080;-67
2022/08/26 03:12:25;;;;;;;4.47;3.75;;;;;;;;;;5014284;28;20022;-67
2022/08/26 03:14:50;;;;;;;5.93;3.55;;;;;;;;;;5013989;28;20037;-66
2022/08/26 03:17:16;;;;;;;8.50;3.80;;;;;;;;;;5014229;28;20021;-67
2022/08/26 03:19:41;;;;;;;5.22;3.35;;;;;;;;;;5013842;28;20080;-67
2022/08/26 03:22:08;;;;;;;5.93;3.20;;;;;;;;;;5013772;28;20042;-66
2022/08/26 03:24:33;;;;;;;3.70;3.17;;;;;;;;;;5013865;28;20026;-66
2022/08/26 03:27:00;;;;;;;6.95;3.65;;;;;;;;;;5014148;28;20478;-67
2022/08/26 03:32:10;;;;;;;7.38;3.55;;;;;;;;;;5017895;28;20072;-67
2022/08/26 03:34:36;;;;;;;3.88;3.13;;;;;;;;;;5017862;28;20422;-67
2022/08/26 03:37:01;;;;;;;4.70;3.25;;;;;;;;;;5018040;28;20041;-67
2022/08/26 03:39:27;;;;;;;3.70;3.40;;;;;;;;;;5018242;28;20030;-67
2022/08/26 03:41:52;;;;;;;3.53;3.15;;;;;;;;;;5016491;28;20377;-67
2022/08/26 03:44:17;;;;;;;6.47;3.63;;;;;;;;;;5017703;28;20460;-66
2022/08/26 03:46:43;;;;;;;4.45;3.20;;;;;;;;;;5017944;28;20064;-66
2022/08/26 03:49:08;;;;;;;5.43;3.30;;;;;;;;;;5016348;28;20014;-66
2022/08/26 03:51:35;;;;;;;6.20;3.53;;;;;;;;;;5017588;28;20492;-68
2022/08/26 03:54:01;;;;;;;5.90;3.25;;;;;;;;;;5018044;28;20100;-68
2022/08/26 03:56:27;;;;;;;7.13;3.33;;;;;;;;;;5017694;28;20026;-68
2022/08/26 03:58:52;;;;;;;5.57;3.15;;;;;;;;;;5017412;28;20025;-68
2022/08/26 04:01:18;;;;;;;3.95;3.08;;;;;;;;;;5017536;28;20124;-68
2022/08/26 04:03:58;;;;;;;4.88;3.00;;;;;;;;;;5017308;28;20017;-67
2022/08/26 04:06:25;;;;;;;3.95;3.17;;;;;;;;;;5017565;28;20457;-67
2022/08/26 04:08:52;;;;;;;5.80;3.08;;;;;;;;;;5017226;28;20029;-67
2022/08/26 04:11:19;;;;;;;5.55;3.25;;;;;;;;;;5017672;28;20050;-67
2022/08/26 04:13:44;;;;;;;5.00;3.30;;;;;;;;;;5017120;28;20026;-67
2022/08/26 04:16:10;;;;;;;5.28;3.08;;;;;;;;;;5017058;28;20392;-67
2022/08/26 04:18:36;;;;;;;3.47;3.17;;;;;;;;;;5017609;28;20030;-67
2022/08/26 04:21:06;;;;;;;4.75;3.40;;;;;;;;;;5015605;28;20476;-67
2022/08/26 04:23:32;;;;;;;9.73;3.38;;;;;;;;;;5016912;28;20034;-67
2022/08/26 04:25:57;;;;;;;6.40;3.30;;;;;;;;;;5017174;28;20022;-67
2022/08/26 04:28:22;;;;;;;7.78;3.30;;;;;;;;;;5017410;28;20030;-67
2022/08/26 04:30:48;;;;;;;5.75;3.70;;;;;;;;;;5017343;28;20072;-67
2022/08/26 04:33:14;;;;;;;3.67;3.03;;;;;;;;;;5015232;28;20108;-67
2022/08/26 04:35:39;;;;;;;7.28;3.58;;;;;;;;;;5015247;28;20052;-68
2022/08/26 04:38:04;;;;;;;7.43;3.40;;;;;;;;;;5015110;28;20107;-68
2022/08/26 04:40:30;;;;;;;6.82;3.30;;;;;;;;;;5014304;28;20052;-67
2022/08/26 04:42:55;;;;;;;3.85;3.00;;;;;;;;;;5013218;28;20550;-67
2022/08/26 04:45:21;;;;;;;9.15;3.45;;;;;;;;;;5015123;28;20046;-67
2022/08/26 04:47:46;;;;;;;5.95;3.67;;;;;;;;;;5014982;28;20038;-67
2022/08/26 04:50:12;;;;;;;7.53;3.60;;;;;;;;;;5016297;28;20017;-67
2022/08/26 04:52:37;;;;;;;5.47;3.08;;;;;;;;;;5015268;28;20555;-67
2022/08/26 04:55:03;;;;;;;8.10;3.80;;;;;;;;;;5015175;28;20068;-67
2022/08/26 04:57:29;;;;;;;5.07;3.08;;;;;;;;;;5016580;28;20044;-67
2022/08/26 04:59:54;;;;;;;5.18;3.38;;;;;;;;;;5016250;28;20030;-68
2022/08/26 05:02:20;;;;;;;7.93;3.42;;;;;;;;;;5016486;28;20030;-68
2022/08/26 05:04:45;;;;;;;6.15;3.47;;;;;;;;;;5016761;28;20025;-68
2022/08/26 05:07:10;;;;;;;6.18;3.55;;;;;;;;;;5036010;23;20458;-62
2022/08/26 05:09:38;;;;;;;7.20;3.40;;;;;;;;;;5036410;28;20083;-67
2022/08/26 05:12:03;;;;;;;5.82;3.10;;;;;;;;;;5035820;28;20031;-68
2022/08/26 05:14:35;;;;;;;9.60;3.22;;;;;;;;;;5035775;28;20033;-67
2022/08/26 05:17:01;;;;;;;4.65;3.30;;;;;;;;;;5036013;28;20057;-68
2022/08/26 05:19:27;;;;;;;9.95;3.45;;;;;;;;;;5035923;28;20072;-68
2022/08/26 05:21:53;;;;;;;7.50;3.63;;;;;;;;;;5035625;28;20033;-67
2022/08/26 05:24:18;;;;;;;6.30;3.30;;;;;;;;;;5035617;28;20048;-68
2022/08/26 05:26:44;;;;;;;6.78;3.60;;;;;;;;;;5035499;28;20025;-67
2022/08/26 05:29:09;;;;;;;8.20;3.63;;;;;;;;;;5035472;28;20522;-68
2022/08/26 05:31:34;;;;;;;12.23;4.03;;;;;;;;;;5035441;28;20025;-68
2022/08/26 05:34:01;;;;;;;8.27;4.00;;;;;;;;;;5035415;28;20022;-67
2022/08/26 05:36:29;;;;;;;8.27;3.75;;;;;;;;;;5035343;28;20045;-67
2022/08/26 05:38:54;;;;;;;6.97;3.40;;;;;;;;;;5035578;28;20020;-68
2022/08/26 05:41:23;;;;;;;4.63;3.50;;;;;;;;;;5035238;28;20037;-67
2022/08/26 05:43:49;;;;;;;8.70;3.63;;;;;;;;;;5035484;28;20045;-67
2022/08/26 05:46:14;;;;;;;7.85;3.53;;;;;;;;;;5035451;28;20371;-67
2022/08/26 05:48:40;;;;;;;8.70;3.53;;;;;;;;;;5035123;28;20013;-67
2022/08/26 05:51:07;;;;;;;8.32;3.55;;;;;;;;;;5035329;28;20056;-67
2022/08/26 05:53:33;;;;;;;9.93;4.18;;;;;;;;;;5016848;28;20017;-67
2022/08/26 05:55:58;;;;;;;8.50;3.55;;;;;;;;;;5035222;28;20026;-67
2022/08/26 05:58:24;;;;;;;7.93;3.67;;;;;;;;;;5034928;28;20021;-67
2022/08/26 06:01:01;;;;;;;8.85;3.45;;;;;;;;;;5035102;28;20033;-67
2022/08/26 06:03:26;;;;;;;9.38;4.20;;;;;;;;;;5035096;28;20051;-67
2022/08/26 06:05:52;;;;;;;7.43;3.70;;;;;;;;;;5034758;28;20018;-67
2022/08/26 06:08:19;;;;;;;5.90;3.83;;;;;;;;;;5034550;28;20050;-67
2022/08/26 06:10:53;;;;;;;7.22;4.05;;;;;;;;;;5035217;28;20121;-67
2022/08/26 06:13:20;;;;;;;8.13;4.15;;;;;;;;;;5034650;28;20112;-67
2022/08/26 06:15:47;;;;;;;9.75;3.78;;;;;;;;;;5034842;28;20067;-68
2022/08/26 06:18:13;;;;;;;7.18;4.03;;;;;;;;;;5034487;28;20117;-68
2022/08/26 06:20:42;;;;;;;7.80;4.05;;;;;;;;;;5034713;28;20026;-68
2022/08/26 06:25:52;;;;;;;11.48;4.40;;;;;;;;;;5033668;28;20375;-67
2022/08/26 06:28:17;;;;;;;9.88;4.35;;;;;;;;;;5034510;28;20018;-67
2022/08/26 06:30:43;;;;;;;8.20;4.28;;;;;;;;;;5034719;28;20075;-68
2022/08/26 06:33:08;;;;;;;11.85;4.18;;;;;;;;;;5034082;28;20022;-67
2022/08/26 06:35:38;;;;;;;9.10;4.32;;;;;;;;;;5034223;28;20357;-68
2022/08/26 06:38:04;;;;;;;5.35;4.07;;;;;;;;;;5016586;28;20029;-67
2022/08/26 06:40:29;;;;;;;7.35;4.28;;;;;;;;;;5033679;28;20464;-68
2022/08/26 06:42:55;;;;;;;7.35;4.32;;;;;;;;;;5033783;28;20053;-68
2022/08/26 06:45:20;;;;;;;9.18;4.13;;;;;;;;;;5016166;28;20029;-68
2022/08/26 06:47:46;;;;;;;11.60;3.90;;;;;;;;;;5033784;28;20104;-68
2022/08/26 06:50:11;;;;;;;10.82;4.57;;;;;;;;;;5033227;28;20052;-68
2022/08/26 06:52:40;;;;;;;8.77;4.22;;;;;;;;;;5032802;28;20092;-68
2022/08/26 06:55:05;;;;;;;7.75;4.03;;;;;;;;;;5015204;28;20032;-68
2022/08/26 06:57:31;;;;;;;8.75;4.30;;;;;;;;;;5015112;28;20033;-68
2022/08/26 06:59:57;;;;;;;8.32;4.30;;;;;;;;;;5032701;28;20095;-68
2022/08/26 07:02:22;;;;;;;6.53;3.97;;;;;;;;;;5032690;28;20122;-68
2022/08/26 07:04:47;;;;;;;7.03;4.05;;;;;;;;;;5031987;28;20032;-68
2022/08/26 07:07:13;;;;;;;7.53;4.30;;;;;;;;;;5032494;28;20074;-68
2022/08/26 07:09:39;;;;;;;9.65;4.28;;;;;;;;;;5032657;28;20387;-68
2022/08/26 07:12:05;;;;;;;8.38;4.38;;;;;;;;;;5032572;28;20067;-68
2022/08/26 07:14:31;;;;;;;9.25;4.05;;;;;;;;;;5032596;28;20061;-68
2022/08/26 07:16:58;;;;;;;5.68;4.00;;;;;;;;;;5032562;28;20525;-68
2022/08/26 07:19:23;;;;;;;10.18;4.40;;;;;;;;;;5032465;28;20041;-68
2022/08/26 07:21:48;;;;;;;10.82;3.95;;;;;;;;;;5032539;28;20026;-68
2022/08/26 07:24:14;;;;;;;8.73;4.22;;;;;;;;;;5032512;28;20101;-68
2022/08/26 07:26:39;;;;;;;7.93;4.10;;;;;;;;;;5032501;28;20433;-68
2022/08/26 07:29:05;;;;;;;10.35;3.90;;;;;;;;;;5032432;28;20385;-69
2022/08/26 07:31:31;;;;;;;7.70;4.28;;;;;;;;;;5032439;28;20033;-68
2022/08/26 07:33:57;;;;;;;12.02;4.05;;;;;;;;;;5032435;28;20025;-69
2022/08/26 07:36:23;;;;;;;10.63;4.03;;;;;;;;;;5032589;28;20489;-68
2022/08/26 07:38:49;;;;;;;6.80;4.20;;;;;;;;;;5032484;28;20384;-68
2022/08/26 07:41:16;;;;;;;5.65;3.90;;;;;;;;;;5032300;28;20029;-68
2022/08/26 07:43:42;;;;;;;12.90;4.20;;;;;;;;;;5014641;28;20064;-67
2022/08/26 07:46:08;;;;;;;10.43;4.25;;;;;;;;;;5032339;28;20067;-68
2022/08/26 07:48:34;;;;;;;7.95;3.45;;;;;;;;;;5032283;28;20026;-68
2022/08/26 07:50:59;;;;;;;9.35;3.90;;;;;;;;;;5014949;28;20414;-69
2022/08/26 07:53:25;;;;;;;6.63;3.95;;;;;;;;;;5032190;28;20029;-68
2022/08/26 07:55:50;;;;;;;8.85;3.97;;;;;;;;;;5032541;28;20040;-68
2022/08/26 07:58:16;;;;;;;12.00;4.30;;;;;;;;;;5032194;28;20072;-68
2022/08/26 08:00:41;;;;;;;13.70;3.50;;;;;;;;;;5032142;28;20039;-68
2022/08/26 08:03:07;;;;;;;7.53;3.67;;;;;;;;;;5014544;28;20110;-68
2022/08/26 08:05:32;;;;;;;8.35;3.90;;;;;;;;;;5032079;28;20017;-68
2022/08/26 08:07:58;;;;;;;7.57;3.63;;;;;;;;;;5031958;28;20592;-68
2022/08/26 08:10:25;;;;;;;9.80;3.40;;;;;;;;;;5032120;28;20026;-68
2022/08/26 08:12:51;;;;;;;8.77;3.40;;;;;;;;;;5032060;28;20065;-68
2022/08/26 08:15:17;;;;;;;7.35;3.47;;;;;;;;;;5015289;28;20060;-68
2022/08/26 08:17:42;;;;;;;6.55;3.38;;;;;;;;;;5035830;28;20382;-68
2022/08/26 08:20:08;;;;;;;10.25;3.58;;;;;;;;;;5035598;28;20026;-69
2022/08/26 08:22:34;;;;;;;9.93;3.55;;;;;;;;;;5036515;28;20061;-68
2022/08/26 08:24:59;;;;;;;7.35;3.42;;;;;;;;;;5036989;28;20022;-68
2022/08/26 08:27:25;;;;;;;8.00;3.42;;;;;;;;;;5036895;28;20105;-68
2022/08/26 08:29:53;;;;;;;6.72;3.35;;;;;;;;;;5036659;28;20129;-68
2022/08/26 08:32:18;;;;;;;7.10;3.67;;;;;;;;;;5036819;28;20037;-68
2022/08/26 08:34:44;;;;;;;11.10;3.05;;;;;;;;;;5036515;28;20021;-68
2022/08/26 08:37:09;;;;;;;4.28;3.03;;;;;;;;;;5036368;28;20421;-68
2022/08/26 08:39:35;;;;;;;6.28;3.40;;;;;;;;;;5036306;28;20021;-68
2022/08/26 08:42:19;;;;;;;6.20;3.40;;;;;;;;;;5034959;28;20022;-68
2022/08/26 08:44:47;;;;;;;9.60;3.70;;;;;;;;;;5034344;28;20049;-68
2022/08/26 08:47:17;;;;;;;6.60;3.47;;;;;;;;;;5034644;28;20014;-68
2022/08/26 08:49:43;;;;;;;5.93;2.95;;;;;;;;;;5036211;28;20037;-68
2022/08/26 08:52:10;;;;;;;7.95;3.38;;;;;;;;;;5035354;28;20048;-68
2022/08/26 08:54:36;;;;;;;5.10;3.17;;;;;;;;;;5034061;28;20029;-68
2022/08/26 08:57:07;;;;;;;5.63;3.17;;;;;;;;;;5034046;28;20361;-68
2022/08/26 08:59:34;;;;;;;9.45;3.50;;;;;;;;;;5033891;28;20620;-68
2022/08/26 09:02:23;;;;;;;13.07;3.20;;;;;;;;;;5035170;28;20096;-68
2022/08/26 09:04:49;;;;;;;7.07;2.72;;;;;;;;;;5035080;28;20022;-68
2022/08/26 09:07:32;;;;;;;8.65;4.07;;;;;;;;;;5034464;28;20029;-68
2022/08/26 09:10:01;;;;;;;10.05;3.00;;;;;;;;;;5036381;28;20071;-68
2022/08/26 09:12:29;;;;;;;10.27;3.35;;;;;;;;;;5036370;28;20079;-68
2022/08/26 09:15:00;;;;;;;3.95;2.83;;;;;;;;;;5035976;28;20029;-68
2022/08/26 09:17:32;;;;;;;13.02;3.20;;;;;;;;;;5018117;28;20036;-68
2022/08/26 09:20:16;;;;;;;10.48;2.70;;;;;;;;;;5036274;28;20033;-69
2022/08/26 09:22:42;;;;;;;6.00;2.63;;;;;;;;;;5036062;28;20036;-67
2022/08/26 09:25:09;;;;;;;9.23;2.60;;;;;;;;;;5017841;28;20143;-67
2022/08/26 09:27:45;;;;;;;9.15;2.90;;;;;;;;;;5035109;28;20360;-67
2022/08/26 09:30:22;;;;;;;7.93;2.83;;;;;;;;;;5035774;28;20030;-67
2022/08/26 09:32:56;;;;;;;5.93;2.67;;;;;;;;;;5035832;28;20155;-67
2022/08/26 09:35:27;;;;;;;10.43;3.17;;;;;;;;;;5035772;28;20414;-67
2022/08/26 09:37:52;;;;;;;5.60;2.33;;;;;;;;;;5035914;28;20021;-67
2022/08/26 09:40:25;;;;;;;6.25;2.45;;;;;;;;;;5035304;28;20349;-67
2022/08/26 09:43:09;;;;;;;6.65;2.20;;;;;;;;;;5035367;28;20424;-69
2022/08/26 09:45:37;;;;;;;7.75;2.58;;;;;;;;;;5017660;28;20380;-67
2022/08/26 09:48:03;;;;;;;6.32;2.42;;;;;;;;;;5017695;28;20044;-67
2022/08/26 09:50:31;;;;;;;6.20;2.38;;;;;;;;;;5035000;28;20483;-66
2022/08/26 09:53:11;;;;;;;4.15;2.30;;;;;;;;;;5035354;28;20032;-67
2022/08/26 09:55:36;;;;;;;;;;;;;;;;;;5036009;28;20037;-67
2022/08/26 09:58:02;;;;;;;7.13;2.60;;;;;;;;;;5034984;28;19905;-66
2022/08/26 10:00:35;;;;;;;6.97;2.13;;;;;;;;;;5035108;28;20276;-67
2022/08/26 10:03:02;;;;;;;9.18;2.25;;;;;;;;;;5016327;28;20030;-66
2022/08/26 10:05:30;;;;;;;7.00;2.58;;;;;;;;;;5033821;28;20116;-66
2022/08/26 10:07:56;;;;;;;5.95;2.13;;;;;;;;;;5033592;28;20037;-67
2022/08/26 10:10:25;;;;;;;5.85;2.53;;;;;;;;;;5034043;28;20120;-67
2022/08/26 10:12:57;;;;;;;5.70;2.10;;;;;;;;;;5033937;28;20025;-62
2022/08/26 10:15:25;;;;;;;12.30;2.83;;;;;;;;;;5034037;28;20044;-63
2022/08/26 10:17:56;;;;;;;10.45;2.78;;;;;;;;;;5033924;28;20068;-63
2022/08/26 10:20:25;;;;;;;6.95;2.80;;;;;;;;;;5033171;28;20426;-62
2022/08/26 10:22:53;;;;;;;12.85;3.83;;;;;;;;;;5032784;28;20075;-63
2022/08/26 10:25:27;;;;;;;8.30;3.50;;;;;;;;;;5014710;28;20021;-63
2022/08/26 10:28:02;;;;;;;5.53;2.25;;;;;;;;;;5033022;28;20025;-63
2022/08/26 10:30:33;;;;;;;6.88;3.42;;;;;;;;;;5033538;28;20041;-62
2022/08/26 10:33:09;;;;;;;10.63;3.13;;;;;;;;;;5017016;28;20108;-62
2022/08/26 10:35:38;;;;;;;7.63;3.50;;;;;;;;;;5034537;28;20029;-62
2022/08/26 10:38:08;;;;;;;5.93;2.85;;;;;;;;;;5016512;28;20029;-62
2022/08/26 10:40:45;;;;;;;6.53;1.70;;;;;;;;;;5033815;28;20459;-62
2022/08/26 10:43:22;;;;;;;6.70;2.88;;;;;;;;;;5033150;28;20811;-63
2022/08/26 10:46:08;;;;;;;8.25;3.10;;;;;;;;;;5033015;28;20025;-63
2022/08/26 10:48:42;;;;;;;10.23;3.33;;;;;;;;;;5014863;28;20095;-63
2022/08/26 10:51:10;;;;;;;8.43;2.60;;;;;;;;;;5032961;28;20101;-62
2022/08/26 10:53:54;;;;;;;5.32;2.35;;;;;;;;;;5015159;28;20032;-63
2022/08/26 10:56:38;;;;;;;10.88;2.70;;;;;;;;;;5032880;28;20105;-62
2022/08/26 10:59:21;;;;;;;4.72;2.40;;;;;;;;;;5032825;28;20026;-62
2022/08/26 11:01:59;;;;;;;8.45;2.85;;;;;;;;;;5032794;28;20112;-62
2022/08/26 11:04:34;;;;;;;6.43;2.70;;;;;;;;;;5032817;28;20128;-63
2022/08/26 11:07:18;;;;;;;7.30;2.72;;;;;;;;;;5032571;28;20083;-62
2022/08/26 11:09:44;;;;;;;4.60;2.20;;;;;;;;;;5014972;28;20037;-62
2022/08/26 11:12:33;;;;;;;8.48;2.30;;;;;;;;;;5033115;28;20072;-62
2022/08/26 11:14:59;;;;;;;11.02;3.47;;;;;;;;;;4996747;28;20033;-62
2022/08/26 11:17:45;;;;;;;8.00;2.60;;;;;;;;;;5033883;28;20635;-62
2022/08/26 11:20:17;;;;;;;4.25;2.45;;;;;;;;;;5019793;28;20045;-62
2022/08/26 11:22:43;;;;;;;8.27;2.90;;;;;;;;;;5033673;28;20055;-62
2022/08/26 11:25:12;;;;;;;6.63;2.97;;;;;;;;;;5033558;28;20017;-62
2022/08/26 11:27:38;;;;;;;8.43;2.57;;;;;;;;;;5033640;28;20036;-62
2022/08/26 11:30:27;;;;;;;10.40;2.60;;;;;;;;;;5033534;28;20026;-62
2022/08/26 11:32:54;;;;;;;5.38;2.60;;;;;;;;;;5033372;28;20494;-62
2022/08/26 11:35:19;;;;;;;6.97;2.58;;;;;;;;;;5015793;28;20369;-62
2022/08/26 11:37:56;;;;;;;4.80;2.13;;;;;;;;;;5033491;28;20049;-62
2022/08/26 11:40:29;;;;;;;12.27;2.67;;;;;;;;;;5015693;28;20471;-62
2022/08/26 11:42:55;;;;;;;5.18;2.17;;;;;;;;;;5033261;28;20044;-62
2022/08/26 11:45:23;;;;;;;3.72;2.00;;;;;;;;;;5033377;28;20100;-62
2022/08/26 11:47:48;;;;;;;5.65;1.95;;;;;;;;;;5033492;28;20037;-62
2022/08/26 11:50:19;;;;;;;3.75;1.98;;;;;;;;;;5033831;28;20018;-62
2022/08/26 11:53:04;;;;;;;6.20;2.17;;;;;;;;;;5037245;28;20427;-62
2022/08/26 11:55:30;;;;;;;4.13;2.28;;;;;;;;;;5037449;28;20037;-62
2022/08/26 11:57:59;;;;;;;10.18;2.75;;;;;;;;;;5037316;28;20028;-62
2022/08/26 12:00:27;;;;;;;6.57;2.10;;;;;;;;;;5037013;28;20036;-62
2022/08/26 12:02:54;;;;;;;5.43;2.05;;;;;;;;;;5037143;28;20028;-62
2022/08/26 12:05:22;;;;;;;2.63;2.00;;;;;;;;;;5037060;28;20415;-63
2022/08/26 12:07:49;;;;;;;4.95;2.30;;;;;;;;;;5015942;28;20116;-63
2022/08/26 12:10:24;;;;;;;4.70;2.35;;;;;;;;;;5015943;28;20105;-63
2022/08/26 12:12:53;;;;;;;4.63;2.13;;;;;;;;;;5017117;28;20061;-63
2022/08/26 12:15:21;;;;;;;4.28;2.40;;;;;;;;;;5015994;28;20181;-63
2022/08/26 12:17:48;;;;;;;3.80;2.40;;;;;;;;;;5017451;28;20443;-63
2022/08/26 12:20:30;;;;;;;5.75;2.30;;;;;;;;;;5017134;28;20064;-63
2022/08/26 12:22:57;;;;;;;4.43;2.40;;;;;;;;;;5017329;28;20460;-63
2022/08/26 12:25:23;;;;;;;7.07;2.47;;;;;;;;;;5016990;28;20109;-63
2022/08/26 12:27:49;;;;;;;6.80;2.50;;;;;;;;;;5017166;28;20076;-63
2022/08/26 12:30:23;;;;;;;6.18;2.15;;;;;;;;;;5016910;28;20045;-63
2022/08/26 12:32:51;;;;;;;8.68;2.50;;;;;;;;;;5016838;28;20087;-63
2022/08/26 12:35:17;;;;;;;3.25;2.17;;;;;;;;;;5016834;28;20483;-63
2022/08/26 12:37:48;;;;;;;8.63;2.75;;;;;;;;;;5016741;28;20494;-63
2022/08/26 12:40:23;;;;;;;3.53;2.40;;;;;;;;;;5016886;28;20033;-63
2022/08/26 12:42:49;;;;;;;6.30;2.50;;;;;;;;;;5017248;28;20061;-63
2022/08/26 12:45:24;;;;;;;3.25;2.33;;;;;;;;;;5016854;28;20053;-63
2022/08/26 12:47:53;;;;;;;3.22;2.20;;;;;;;;;;5016824;28;20070;-63
2022/08/26 12:50:26;;;;;;;4.78;2.33;;;;;;;;;;5015304;28;20427;-63
2022/08/26 12:52:55;;;;;;;3.13;2.40;;;;;;;;;;5016745;28;20033;-63
2022/08/26 12:55:22;;;;;;;5.40;2.50;;;;;;;;;;5016982;28;20022;-63
2022/08/26 12:57:48;;;;;;;5.20;2.60;;;;;;;;;;5010710;28;20037;-63
2022/08/26 13:00:30;;;;;;;6.28;2.63;;;;;;;;;;4996869;28;20022;-63
2022/08/26 13:02:56;;;;;;;5.15;3.13;;;;;;;;;;4995508;28;20049;-63
2022/08/26 13:05:22;;;;;;;4.43;3.00;;;;;;;;;;4996749;28;20457;-64
2022/08/26 13:08:06;;;;;;;5.78;3.10;;;;;;;;;;5011481;28;20045;-63
2022/08/26 13:10:34;;;;;;;4.57;2.97;;;;;;;;;;5015839;28;20037;-63
2022/08/26 13:12:59;;;;;;;7.97;3.33;;;;;;;;;;5016104;28;20022;-63
2022/08/26 13:15:24;;;;;;;3.88;3.28;;;;;;;;;;5015896;28;20365;-63
2022/08/26 13:17:50;;;;;;;3.50;3.10;;;;;;;;;;5016549;28;20021;-63
2022/08/26 13:20:16;;;;;;;5.43;2.80;;;;;;;;;;4998629;28;20049;-63
2022/08/26 13:22:41;;;;;;;5.70;2.80;;;;;;;;;;4998379;28;20097;-63
2022/08/26 13:25:07;;;;;;;6.18;3.20;;;;;;;;;;4996558;28;20504;-63
2022/08/26 13:27:32;;;;;;;5.88;2.75;;;;;;;;;;5013920;28;20057;-63
2022/08/26 13:29:58;;;;;;;5.68;2.78;;;;;;;;;;5013814;28;20076;-63
2022/08/26 13:32:23;;;;;;;5.47;2.90;;;;;;;;;;5013773;28;20017;-63
2022/08/26 13:34:49;;;;;;;9.40;2.90;;;;;;;;;;5013038;28;20032;-63
2022/08/26 13:37:15;;;;;;;8.82;3.05;;;;;;;;;;4995648;28;20505;-63
2022/08/26 13:39:41;;;;;;;7.47;3.25;;;;;;;;;;5014504;28;20029;-63
2022/08/26 13:42:06;;;;;;;4.95;3.03;;;;;;;;;;5014791;28;20010;-63
2022/08/26 13:44:32;;;;;;;6.32;2.85;;;;;;;;;;5014404;28;20038;-63
2022/08/26 13:46:57;;;;;;;8.27;2.83;;;;;;;;;;5014363;28;20457;-61
2022/08/26 13:49:23;;;;;;;5.15;2.88;;;;;;;;;;5014942;28;20022;-61
2022/08/26 13:51:48;;;;;;;8.30;3.40;;;;;;;;;;5015138;28;20522;-63
2022/08/26 13:54:13;;;;;;;8.30;3.45;;;;;;;;;;5015147;28;20037;-63
2022/08/26 13:56:39;;;;;;;5.55;3.00;;;;;;;;;;5015199;28;20408;-63
2022/08/26 13:59:05;;;;;;;11.40;4.40;;;;;;;;;;4997353;28;20030;-63
2022/08/26 14:01:30;;;;;;;10.77;6.32;;;;;;;;;;4996346;28;20483;-63
2022/08/26 14:03:56;;;;;;;20.15;9.15;;;;;;;;;;5013992;28;20388;-63
2022/08/26 14:06:22;;;;;;;6.75;4.45;;;;;;;;;;4996255;28;20048;-63
2022/08/26 14:08:48;;;;;;;9.02;4.70;;;;;;;;;;5013894;28;20381;-63
2022/08/26 14:11:13;;;;;;;9.07;4.97;;;;;;;;;;5013875;28;20500;-63
2022/08/26 14:13:39;;;;;;;5.78;4.25;;;;;;;;;;5013551;28;20034;-63
2022/08/26 14:16:07;;;;;;;4.55;3.15;;;;;;;;;;5014328;28;20021;-63
2022/08/26 14:18:34;;;;;;;7.70;3.10;;;;;;;;;;5014983;28;20117;-63
2022/08/26 14:20:59;;;;;;;4.47;3.08;;;;;;;;;;5014692;28;20033;-63
2022/08/26 14:23:25;;;;;;;4.18;2.78;;;;;;;;;;5014760;28;20468;-63
2022/08/26 14:25:51;;;;;;;5.18;3.30;;;;;;;;;;5015051;28;20341;-63
2022/08/26 14:28:17;;;;;;;4.03;3.30;;;;;;;;;;5014832;28;20041;-63
2022/08/26 14:30:43;;;;;;;6.72;3.05;;;;;;;;;;5014963;28;20080;-63
2022/08/26 14:33:12;;;;;;;5.13;2.75;;;;;;;;;;5014900;28;20026;-63
2022/08/26 14:35:38;;;;;;;4.85;2.92;;;;;;;;;;4996838;28;20021;-63
2022/08/26 14:38:03;;;;;;;9.20;3.33;;;;;;;;;;4980991;28;20499;-63
2022/08/26 14:40:29;;;;;;;7.20;3.28;;;;;;;;;;5015035;28;20018;-63
2022/08/26 14:42:56;;;;;;;8.35;3.50;;;;;;;;;;5014434;28;20376;-68
2022/08/26 14:45:22;;;;;;;11.63;3.25;;;;;;;;;;5015056;28;20018;-67
2022/08/26 14:47:49;;;;;;;4.53;3.17;;;;;;;;;;4996794;28;20046;-68
2022/08/26 14:50:16;;;;;;;7.47;3.47;;;;;;;;;;5014666;28;20095;-68
2022/08/26 14:55:26;;;;;;;6.40;3.25;;;;;;;;;;5014550;28;20032;-68